Time;durP1;ratioP1;P1;durP2;ratioP2;P2;SDS_P1;SDS_P2;PMS_P1;PMS_P2;Temp;Humidity;BMP_temperature;BMP_pressure;BME280_temperature;BME280_humidity;BME280_pressure;Samples;Min_cycle;Max_cycle;Signal;HPM_P1;HPM_P2
2022/07/17 00:01:58;;;;;;;5.43;1.42;;;11.50;99.90;;;;;;5052962;28;20029;-62
2022/07/17 00:04:24;;;;;;;4.53;1.65;;;11.20;99.90;;;;;;5059726;28;20074;-62
2022/07/17 00:06:49;;;;;;;5.30;1.90;;;11.40;99.90;;;;;;5050930;28;20033;-62
2022/07/17 00:09:15;;;;;;;6.22;1.88;;;11.40;99.90;;;;;;5053483;28;20036;-62
2022/07/17 00:11:41;;;;;;;5.53;1.90;;;11.50;99.90;;;;;;5052480;28;20063;-62
2022/07/17 00:14:06;;;;;;;5.90;2.28;;;11.40;99.90;;;;;;5053127;28;20407;-62
2022/07/17 00:16:32;;;;;;;3.22;1.65;;;11.40;99.90;;;;;;5053293;28;20044;-62
2022/07/17 00:18:58;;;;;;;7.65;2.28;;;11.40;99.90;;;;;;5051140;28;20037;-62
2022/07/17 00:21:23;;;;;;;6.93;2.13;;;11.50;99.90;;;;;;5052990;28;20029;-62
2022/07/17 00:23:49;;;;;;;5.47;1.90;;;11.40;99.90;;;;;;5053315;28;20588;-62
2022/07/17 00:26:15;;;;;;;4.55;1.88;;;;;;;;;;5051049;28;20037;-62
2022/07/17 00:28:41;;;;;;;2.47;1.50;;;11.50;99.90;;;;;;5052113;28;20037;-62
2022/07/17 00:31:07;;;;;;;3.67;1.67;;;11.30;99.90;;;;;;5052814;28;20044;-62
2022/07/17 00:33:33;;;;;;;3.80;2.03;;;11.20;99.90;;;;;;5052848;28;20587;-62
2022/07/17 00:35:58;;;;;;;4.22;1.85;;;11.20;99.90;;;;;;5049648;28;20059;-62
2022/07/17 00:38:24;;;;;;;4.90;1.77;;;11.20;99.90;;;;;;5058256;28;20037;-62
2022/07/17 00:40:50;;;;;;;8.40;2.03;;;;;;;;;;5052536;28;20033;-62
2022/07/17 00:43:15;;;;;;;3.50;1.52;;;11.00;99.90;;;;;;5049809;28;20041;-62
2022/07/17 00:45:41;;;;;;;4.15;1.27;;;11.00;99.90;;;;;;5051157;28;20055;-62
2022/07/17 00:48:10;;;;;;;2.92;1.58;;;11.10;99.90;;;;;;5051953;28;20074;-62
2022/07/17 00:50:39;;;;;;;4.53;2.55;;;10.90;99.90;;;;;;5051990;28;20041;-62
2022/07/17 00:53:06;;;;;;;2.75;1.83;;;10.80;99.90;;;;;;5047731;28;20041;-62
2022/07/17 00:55:32;;;;;;;3.25;1.42;;;10.50;99.90;;;;;;5051094;28;20045;-62
2022/07/17 00:58:02;;;;;;;1.52;1.10;;;10.50;99.90;;;;;;5054907;28;20040;-62
2022/07/17 01:00:27;;;;;;;2.97;1.10;;;10.20;99.90;;;;;;5048035;28;20399;-62
2022/07/17 01:02:55;;;;;;;5.13;2.08;;;10.50;99.90;;;;;;5051845;28;20036;-62
2022/07/17 01:05:22;;;;;;;4.03;2.30;;;10.30;99.90;;;;;;5051301;28;20033;-62
2022/07/17 01:07:48;;;;;;;4.68;2.40;;;10.30;99.90;;;;;;5054249;28;20040;-62
2022/07/17 01:10:18;;;;;;;2.35;2.00;;;10.30;99.90;;;;;;5052029;28;20040;-62
2022/07/17 01:12:45;;;;;;;5.45;1.58;;;10.40;99.90;;;;;;5059692;28;20044;-62
2022/07/17 01:15:12;;;;;;;5.13;2.03;;;10.40;99.90;;;;;;5049379;28;20486;-62
2022/07/17 01:17:38;;;;;;;2.75;1.85;;;;;;;;;;5051678;28;20466;-62
2022/07/17 01:20:08;;;;;;;3.00;1.85;;;10.40;99.90;;;;;;5050398;28;20047;-62
2022/07/17 01:22:46;;;;;;;4.18;2.15;;;10.20;99.90;;;;;;5048110;28;20398;-62
2022/07/17 01:25:13;;;;;;;3.85;1.52;;;10.20;99.90;;;;;;5053469;28;20115;-62
2022/07/17 01:27:39;;;;;;;5.80;2.00;;;10.10;99.90;;;;;;5050915;28;20247;-62
2022/07/17 01:30:05;;;;;;;3.35;1.75;;;10.20;99.90;;;;;;5051993;28;20132;-62
2022/07/17 01:32:35;;;;;;;3.70;2.13;;;10.30;99.90;;;;;;5050826;28;20171;-62
2022/07/17 01:35:02;;;;;;;4.57;1.88;;;10.10;99.90;;;;;;5051420;28;20051;-62
2022/07/17 01:37:29;;;;;;;3.25;1.98;;;10.20;99.90;;;;;;5049887;28;20049;-62
2022/07/17 01:39:55;;;;;;;3.75;1.73;;;10.30;99.90;;;;;;5055917;28;20155;-62
2022/07/17 01:42:22;;;;;;;3.90;1.92;;;10.20;99.90;;;;;;5052427;28;20037;-62
2022/07/17 01:44:48;;;;;;;3.00;1.90;;;10.30;99.90;;;;;;5051016;28;20037;-62
2022/07/17 01:47:16;;;;;;;5.88;2.13;;;10.10;99.90;;;;;;5050335;28;20047;-62
2022/07/17 01:49:50;;;;;;;3.42;2.00;;;10.00;99.90;;;;;;5046067;28;20123;-62
2022/07/17 01:52:16;;;;;;;4.88;1.90;;;9.90;99.90;;;;;;5050837;28;20040;-62
2022/07/17 01:54:42;;;;;;;7.85;2.08;;;9.80;99.90;;;;;;5053477;28;20037;-62
2022/07/17 01:57:09;;;;;;;4.65;1.70;;;9.80;99.90;;;;;;5050923;28;20411;-62
2022/07/17 01:59:35;;;;;;;3.83;1.83;;;9.80;99.90;;;;;;5049584;28;20075;-62
2022/07/17 02:02:01;;;;;;;2.90;1.65;;;9.50;99.90;;;;;;5051449;28;20029;-62
2022/07/17 02:04:28;;;;;;;5.20;2.13;;;;;;;;;;5049908;28;20112;-62
2022/07/17 02:06:54;;;;;;;4.78;2.15;;;9.60;99.90;;;;;;5050623;28;20036;-62
2022/07/17 02:09:20;;;;;;;4.28;2.08;;;10.10;99.90;;;;;;5051217;28;20439;-62
2022/07/17 02:11:46;;;;;;;3.47;2.15;;;9.50;99.90;;;;;;5051594;28;20127;-62
2022/07/17 02:14:12;;;;;;;4.95;1.90;;;;;;;;;;5055567;28;20124;-62
2022/07/17 02:16:38;;;;;;;3.90;1.85;;;9.60;99.90;;;;;;5053980;28;20056;-62
2022/07/17 02:19:03;;;;;;;3.47;1.90;;;9.50;99.90;;;;;;5051154;28;20444;-62
2022/07/17 02:21:29;;;;;;;3.53;2.10;;;9.70;99.90;;;;;;5048230;28;20055;-62
2022/07/17 02:23:55;;;;;;;3.90;2.10;;;9.60;99.90;;;;;;5050560;28;20029;-62
2022/07/17 02:26:20;;;;;;;3.83;1.98;;;9.70;99.90;;;;;;5050702;28;20033;-62
2022/07/17 02:28:46;;;;;;;3.47;2.08;;;9.70;99.90;;;;;;5050181;28;20041;-62
2022/07/17 02:31:11;;;;;;;3.88;2.28;;;9.50;99.90;;;;;;5050509;28;20443;-62
2022/07/17 02:33:37;;;;;;;4.85;2.10;;;;;;;;;;5050599;28;20044;-62
2022/07/17 02:36:03;;;;;;;3.85;2.20;;;9.30;99.90;;;;;;5050688;28;20037;-62
2022/07/17 02:38:29;;;;;;;5.15;2.30;;;9.40;99.90;;;;;;5050919;28;20033;-62
2022/07/17 02:40:54;;;;;;;5.43;2.03;;;9.50;99.90;;;;;;5052000;28;20040;-62
2022/07/17 02:43:20;;;;;;;3.58;2.10;;;;;;;;;;5055015;28;20487;-62
2022/07/17 02:45:46;;;;;;;4.78;2.28;;;9.40;99.90;;;;;;5059276;28;20425;-62
2022/07/17 02:48:11;;;;;;;3.78;2.40;;;9.40;99.90;;;;;;5054549;28;20033;-62
2022/07/17 02:50:37;;;;;;;3.75;2.05;;;;;;;;;;5053583;28;20523;-62
2022/07/17 02:53:03;;;;;;;3.38;1.92;;;9.30;99.90;;;;;;5055999;28;20032;-62
2022/07/17 02:55:29;;;;;;;4.88;1.98;;;9.40;99.90;;;;;;5054280;28;20518;-62
2022/07/17 02:57:54;;;;;;;4.13;1.92;;;9.40;99.90;;;;;;5053802;28;20503;-62
2022/07/17 03:00:20;;;;;;;4.53;2.50;;;9.40;99.90;;;;;;5058115;28;20445;-62
2022/07/17 03:02:46;;;;;;;3.30;2.40;;;9.40;99.90;;;;;;5059342;28;20044;-62
2022/07/17 03:05:14;;;;;;;2.42;2.22;;;9.30;99.90;;;;;;5053469;28;20068;-62
2022/07/17 03:07:40;;;;;;;5.68;2.20;;;9.20;99.90;;;;;;5053148;28;20049;-62
2022/07/17 03:10:06;;;;;;;4.32;3.17;;;9.30;99.90;;;;;;5054013;28;20056;-62
2022/07/17 03:12:32;;;;;;;4.80;2.35;;;9.30;99.90;;;;;;5053354;28;20037;-62
2022/07/17 03:14:57;;;;;;;4.25;2.28;;;9.20;99.90;;;;;;5054405;28;20182;-62
2022/07/17 03:17:23;;;;;;;6.40;2.28;;;9.30;99.90;;;;;;5054750;28;20037;-62
2022/07/17 03:19:48;;;;;;;3.30;2.42;;;9.30;99.90;;;;;;5053814;28;20040;-62
2022/07/17 03:22:14;;;;;;;3.75;2.65;;;9.40;99.90;;;;;;5052736;28;20041;-62
2022/07/17 03:24:40;;;;;;;3.22;2.22;;;9.30;99.90;;;;;;5053583;28;20032;-62
2022/07/17 03:27:05;;;;;;;3.40;2.28;;;;;;;;;;5054147;28;20044;-62
2022/07/17 03:29:31;;;;;;;5.72;2.58;;;9.30;99.90;;;;;;5053915;28;20060;-62
2022/07/17 03:31:57;;;;;;;3.95;1.98;;;9.20;99.90;;;;;;5052647;28;20045;-62
2022/07/17 03:34:22;;;;;;;4.70;1.92;;;9.00;99.90;;;;;;5052745;28;20048;-62
2022/07/17 03:36:48;;;;;;;4.90;2.22;;;9.10;99.90;;;;;;5053954;28;20064;-62
2022/07/17 03:39:14;;;;;;;4.38;2.28;;;9.20;99.90;;;;;;5056315;28;20040;-62
2022/07/17 03:41:40;;;;;;;4.40;2.00;;;;;;;;;;5051853;28;20044;-62
2022/07/17 03:44:06;;;;;;;4.43;2.03;;;9.20;99.90;;;;;;5053830;28;20041;-62
2022/07/17 03:46:31;;;;;;;5.07;2.00;;;9.20;99.90;;;;;;5053454;28;20582;-62
2022/07/17 03:48:57;;;;;;;3.58;2.17;;;9.10;99.90;;;;;;5051961;28;20494;-62
2022/07/17 03:51:22;;;;;;;3.55;2.00;;;9.30;99.90;;;;;;5051075;28;20041;-62
2022/07/17 03:53:48;;;;;;;4.60;2.25;;;9.10;99.90;;;;;;5052826;28;20033;-62
2022/07/17 03:56:14;;;;;;;4.07;2.20;;;9.30;99.90;;;;;;5055619;28;20120;-62
2022/07/17 03:58:40;;;;;;;5.25;2.47;;;9.30;99.90;;;;;;5052686;28;20049;-62
2022/07/17 04:01:05;;;;;;;3.33;2.50;;;9.30;99.90;;;;;;5054112;28;20407;-62
2022/07/17 04:03:31;;;;;;;4.43;2.40;;;;;;;;;;5052072;28;20029;-62
2022/07/17 04:05:57;;;;;;;2.35;1.88;;;9.30;99.90;;;;;;5053466;28;20491;-62
2022/07/17 04:08:22;;;;;;;5.07;2.17;;;9.20;99.90;;;;;;5052817;28;20055;-62
2022/07/17 04:10:48;;;;;;;4.18;2.30;;;9.20;99.90;;;;;;5052847;28;20376;-62
2022/07/17 04:13:13;;;;;;;4.28;2.10;;;9.20;99.90;;;;;;5052476;28;20140;-62
2022/07/17 04:15:59;;;;;;;2.75;2.38;;;9.40;99.90;;;;;;5056404;28;20037;-61
2022/07/17 04:18:31;;;;;;;3.17;1.90;;;9.40;99.90;;;;;;5052167;28;20399;-62
2022/07/17 04:20:58;;;;;;;3.05;1.75;;;9.20;99.90;;;;;;5050661;28;20037;-62
2022/07/17 04:23:24;;;;;;;2.97;2.05;;;9.40;99.90;;;;;;5055408;28;20041;-62
2022/07/17 04:25:50;;;;;;;3.20;2.05;;;;;;;;;;5051726;28;20493;-62
2022/07/17 04:28:16;;;;;;;2.65;2.10;;;9.40;99.90;;;;;;5057981;28;20491;-62
2022/07/17 04:30:42;;;;;;;3.78;2.33;;;9.40;99.90;;;;;;5060275;28;20047;-62
2022/07/17 04:33:08;;;;;;;3.30;1.75;;;9.40;99.90;;;;;;5048924;28;20037;-62
2022/07/17 04:35:35;;;;;;;2.55;2.08;;;9.40;99.90;;;;;;5052731;28;20032;-62
2022/07/17 04:38:01;;;;;;;2.78;1.92;;;9.70;99.90;;;;;;5043964;28;20076;-62
2022/07/17 04:40:27;;;;;;;3.53;1.73;;;9.50;99.90;;;;;;5052603;28;20257;-62
2022/07/17 04:42:53;;;;;;;7.22;2.35;;;;;;;;;;5051634;28;20098;-62
2022/07/17 04:45:19;;;;;;;3.67;2.15;;;9.70;99.90;;;;;;5051559;28;20037;-62
2022/07/17 04:47:47;;;;;;;3.17;1.92;;;9.80;99.90;;;;;;5054433;28;20041;-62
2022/07/17 04:50:13;;;;;;;3.95;1.85;;;9.70;99.90;;;;;;5052280;28;20456;-62
2022/07/17 04:52:38;;;;;;;1.88;1.65;;;9.90;99.90;;;;;;5052443;28;20044;-62
2022/07/17 04:55:04;;;;;;;3.70;1.83;;;9.90;99.90;;;;;;5051821;28;20470;-62
2022/07/17 04:57:30;;;;;;;3.72;1.80;;;9.90;99.90;;;;;;5059237;28;20052;-62
2022/07/17 04:59:56;;;;;;;2.92;1.90;;;10.10;99.90;;;;;;5056314;28;20499;-62
2022/07/17 05:02:21;;;;;;;3.80;2.30;;;10.10;99.90;;;;;;5054451;28;20508;-62
2022/07/17 05:04:47;;;;;;;5.57;2.22;;;10.10;99.90;;;;;;5053739;28;20040;-62
2022/07/17 05:07:13;;;;;;;4.50;2.03;;;10.20;99.90;;;;;;5051162;28;20399;-62
2022/07/17 05:09:39;;;;;;;3.38;2.05;;;10.30;99.90;;;;;;5053071;28;20037;-62
2022/07/17 05:12:05;;;;;;;3.65;1.73;;;10.20;99.90;;;;;;5050864;28;20440;-62
2022/07/17 05:14:30;;;;;;;6.22;1.58;;;10.40;99.90;;;;;;5052019;28;20043;-62
2022/07/17 05:16:56;;;;;;;3.53;2.33;;;10.20;99.90;;;;;;5058563;28;20047;-62
2022/07/17 05:19:23;;;;;;;3.38;1.58;;;10.30;99.90;;;;;;5049487;28;20053;-62
2022/07/17 05:21:49;;;;;;;1.73;1.25;;;10.70;99.90;;;;;;5050212;28;20036;-62
2022/07/17 05:24:15;;;;;;;3.30;1.80;;;10.60;99.90;;;;;;5056156;28;20505;-62
2022/07/17 05:26:41;;;;;;;3.60;2.50;;;10.50;99.90;;;;;;5051865;28;20033;-62
2022/07/17 05:29:06;;;;;;;2.10;1.85;;;10.70;99.90;;;;;;5054268;28;20033;-62
2022/07/17 05:31:32;;;;;;;3.55;2.15;;;10.80;99.90;;;;;;5051218;28;20083;-62
2022/07/17 05:33:57;;;;;;;4.07;1.50;;;10.90;99.90;;;;;;5049963;28;20037;-62
2022/07/17 05:36:25;;;;;;;5.55;1.70;;;10.80;99.90;;;;;;5061151;28;20059;-62
2022/07/17 05:38:51;;;;;;;3.20;1.83;;;11.10;99.90;;;;;;5045668;28;20407;-62
2022/07/17 05:41:16;;;;;;;4.53;2.00;;;10.90;99.90;;;;;;5056006;28;20048;-62
2022/07/17 05:43:42;;;;;;;4.20;1.80;;;11.20;99.90;;;;;;5051218;28;20048;-62
2022/07/17 05:46:07;;;;;;;2.70;1.75;;;11.20;99.90;;;;;;5056511;28;20036;-62
2022/07/17 05:48:33;;;;;;;2.55;2.03;;;11.20;99.90;;;;;;5049668;28;20041;-62
2022/07/17 05:50:59;;;;;;;6.68;2.65;;;;;;;;;;5048929;28;20043;-62
2022/07/17 05:53:27;;;;;;;4.55;2.33;;;11.40;99.90;;;;;;5053835;28;20037;-62
2022/07/17 05:55:52;;;;;;;2.75;1.73;;;11.50;99.90;;;;;;5050908;28;20048;-61
2022/07/17 05:58:18;;;;;;;2.65;1.75;;;11.60;99.90;;;;;;5051202;28;20049;-62
2022/07/17 06:00:45;;;;;;;6.30;2.10;;;11.60;99.90;;;;;;5046886;28;20044;-62
2022/07/17 06:03:10;;;;;;;4.40;2.08;;;11.80;99.90;;;;;;5049412;28;20049;-62
2022/07/17 06:05:36;;;;;;;13.05;2.15;;;12.10;99.90;;;;;;5053532;28;20506;-62
2022/07/17 06:08:03;;;;;;;6.75;1.95;;;12.40;99.90;;;;;;5048625;28;20045;-62
2022/07/17 06:10:29;;;;;;;4.68;2.15;;;12.90;99.90;;;;;;5044406;28;20051;-62
2022/07/17 06:12:56;;;;;;;8.00;2.00;;;12.80;99.90;;;;;;5051444;28;20056;-62
2022/07/17 06:15:22;;;;;;;3.05;1.77;;;13.10;99.90;;;;;;5058061;28;20515;-62
2022/07/17 06:17:48;;;;;;;3.65;1.67;;;14.00;99.90;;;;;;5059699;28;20127;-62
2022/07/17 06:20:15;;;;;;;3.80;1.70;;;14.10;99.90;;;;;;5052342;28;20170;-62
2022/07/17 06:22:41;;;;;;;3.97;1.67;;;14.70;99.90;;;;;;5052673;28;20106;-62
2022/07/17 06:25:07;;;;;;;3.92;1.20;;;15.10;99.90;;;;;;5054729;28;20568;-62
2022/07/17 06:27:33;;;;;;;3.03;1.38;;;15.20;99.90;;;;;;5055060;28;20080;-62
2022/07/17 06:29:59;;;;;;;4.55;1.40;;;15.40;99.90;;;;;;5055042;28;20041;-62
2022/07/17 06:32:24;;;;;;;3.03;1.23;;;15.90;99.90;;;;;;5054372;28;20040;-62
2022/07/17 06:34:50;;;;;;;4.45;1.50;;;16.20;99.90;;;;;;5052891;28;20048;-62
2022/07/17 06:37:16;;;;;;;5.55;1.85;;;16.40;99.90;;;;;;5053515;28;20036;-62
2022/07/17 06:39:42;;;;;;;4.10;1.45;;;16.60;99.90;;;;;;5054637;28;20033;-62
2022/07/17 06:42:07;;;;;;;5.60;1.38;;;16.90;99.90;;;;;;5052223;28;20127;-62
2022/07/17 06:44:34;;;;;;;3.35;0.82;;;17.00;99.90;;;;;;5054455;28;20033;-62
2022/07/17 06:46:59;;;;;;;9.77;1.90;;;17.30;99.90;;;;;;5049272;28;20036;-63
2022/07/17 06:49:25;;;;;;;5.60;1.50;;;17.20;99.90;;;;;;5054462;28;20043;-62
2022/07/17 06:51:51;;;;;;;7.25;1.35;;;17.10;99.90;;;;;;5050201;28;20091;-62
2022/07/17 06:54:17;;;;;;;5.30;1.52;;;17.20;99.90;;;;;;5046365;28;20459;-62
2022/07/17 06:56:43;;;;;;;4.00;1.00;;;16.80;99.90;;;;;;5051966;28;20514;-62
2022/07/17 06:59:08;;;;;;;3.17;1.15;;;16.80;99.90;;;;;;5054983;28;20048;-62
2022/07/17 07:01:35;;;;;;;3.70;1.38;;;16.80;99.90;;;;;;5047824;28;20083;-62
2022/07/17 07:04:04;;;;;;;5.53;1.27;;;16.60;99.90;;;;;;5053455;28;20069;-62
2022/07/17 07:06:30;;;;;;;6.47;1.27;;;16.50;99.90;;;;;;5053646;28;20032;-62
2022/07/17 07:08:56;;;;;;;5.68;1.58;;;16.40;99.90;;;;;;5052205;28;20140;-62
2022/07/17 07:11:23;;;;;;;3.92;1.45;;;16.70;99.90;;;;;;5048730;28;20545;-62
2022/07/17 07:13:48;;;;;;;6.18;1.10;;;16.40;99.90;;;;;;5052189;28;20037;-62
2022/07/17 07:16:14;;;;;;;5.38;1.08;;;16.50;99.90;;;;;;5059267;28;20083;-62
2022/07/17 07:18:40;;;;;;;5.88;1.10;;;16.40;99.90;;;;;;5051833;28;20128;-62
2022/07/17 07:21:05;;;;;;;7.93;1.17;;;16.30;99.90;;;;;;5053507;28;20037;-62
2022/07/17 07:23:31;;;;;;;9.30;1.48;;;16.40;99.90;;;;;;5052408;28;20076;-62
2022/07/17 07:25:56;;;;;;;3.35;1.20;;;16.60;99.90;;;;;;5054263;28;20044;-62
2022/07/17 07:28:22;;;;;;;5.72;1.30;;;16.30;99.90;;;;;;5053168;28;20037;-62
2022/07/17 07:30:48;;;;;;;10.20;1.52;;;16.40;99.90;;;;;;5052623;28;20039;-62
2022/07/17 07:33:13;;;;;;;4.20;0.90;;;16.30;99.90;;;;;;5052884;28;20094;-62
2022/07/17 07:35:39;;;;;;;6.35;1.30;;;16.20;99.90;;;;;;5052556;28;20486;-62
2022/07/17 07:38:04;;;;;;;5.45;1.23;;;16.40;99.90;;;;;;5051848;28;20033;-62
2022/07/17 07:40:31;;;;;;;3.95;1.02;;;16.20;99.90;;;;;;5053386;28;20036;-62
2022/07/17 07:42:57;;;;;;;7.78;1.20;;;16.30;99.90;;;;;;5051412;28;20033;-62
2022/07/17 07:45:23;;;;;;;3.53;1.10;;;16.30;99.90;;;;;;5042061;28;20037;-62
2022/07/17 07:47:50;;;;;;;4.07;1.25;;;16.40;99.90;;;;;;5051871;28;20041;-63
2022/07/17 07:50:17;;;;;;;4.45;1.00;;;16.50;99.90;;;;;;5050560;28;20045;-63
2022/07/17 07:52:43;;;;;;;5.57;1.33;;;16.60;99.90;;;;;;5052690;28;20057;-62
2022/07/17 07:55:12;;;;;;;9.45;1.20;;;16.40;99.90;;;;;;5052459;28;20032;-62
2022/07/17 07:57:41;;;;;;;6.07;1.10;;;16.60;99.90;;;;;;5052037;28;20053;-62
2022/07/17 08:00:08;;;;;;;5.68;1.20;;;16.60;99.90;;;;;;5047827;28;20048;-63
2022/07/17 08:02:34;;;;;;;4.75;1.20;;;16.50;99.90;;;;;;5051841;28;20065;-63
2022/07/17 08:05:00;;;;;;;5.57;1.38;;;16.80;99.90;;;;;;5053387;28;20114;-63
2022/07/17 08:07:27;;;;;;;5.53;1.08;;;16.70;99.90;;;;;;5051828;28;20484;-62
2022/07/17 08:09:53;;;;;;;8.10;1.10;;;16.80;99.90;;;;;;5054041;28;20038;-63
2022/07/17 08:12:19;;;;;;;3.50;1.40;;;16.60;99.90;;;;;;5054171;28;20114;-63
2022/07/17 08:14:45;;;;;;;5.45;1.10;;;17.00;99.90;;;;;;5053262;28;20060;-63
2022/07/17 08:17:10;;;;;;;9.48;1.88;;;16.80;99.90;;;;;;5052349;28;20083;-63
2022/07/17 08:19:36;;;;;;;2.58;1.20;;;16.90;99.90;;;;;;5049508;28;20480;-63
2022/07/17 08:22:01;;;;;;;3.45;0.95;;;17.10;99.90;;;;;;5045703;28;20041;-63
2022/07/17 08:24:27;;;;;;;6.88;1.20;;;16.90;99.90;;;;;;5057776;28;20028;-63
2022/07/17 08:26:52;;;;;;;7.57;0.98;;;18.20;99.90;;;;;;5052005;28;20028;-63
2022/07/17 08:29:18;;;;;;;3.97;1.17;;;17.40;99.90;;;;;;5056057;28;20043;-63
2022/07/17 08:31:44;;;;;;;4.60;1.15;;;17.10;99.90;;;;;;5052639;28;20028;-63
2022/07/17 08:34:09;;;;;;;5.07;1.17;;;17.40;99.90;;;;;;5056788;28;20525;-63
2022/07/17 08:36:35;;;;;;;6.97;1.45;;;17.50;99.90;;;;;;5050581;28;20040;-63
2022/07/17 08:39:01;;;;;;;5.00;1.08;;;17.50;99.90;;;;;;5051813;28;20103;-63
2022/07/17 08:41:29;;;;;;;3.90;1.00;;;17.40;99.90;;;;;;5051543;28;20087;-63
2022/07/17 08:43:55;;;;;;;3.78;1.00;;;17.50;99.90;;;;;;5042525;28;20045;-63
2022/07/17 08:46:24;;;;;;;5.90;1.42;;;17.50;99.90;;;;;;5050262;28;20036;-62
2022/07/17 08:48:56;;;;;;;5.55;1.30;;;17.60;99.90;;;;;;5052085;28;20040;-62
2022/07/17 08:51:23;;;;;;;4.68;1.00;;;17.40;99.90;;;;;;5046003;28;20258;-63
2022/07/17 08:53:49;;;;;;;4.82;0.85;;;17.60;99.90;;;;;;5048326;28;20491;-63
2022/07/17 08:56:14;;;;;;;7.30;1.20;;;17.70;99.90;;;;;;5049905;28;20040;-63
2022/07/17 08:58:40;;;;;;;3.28;1.10;;;17.90;99.90;;;;;;5049517;28;20049;-62
2022/07/17 09:01:06;;;;;;;6.03;0.85;;;17.90;99.90;;;;;;5048814;28;20487;-63
2022/07/17 09:03:32;;;;;;;6.78;1.27;;;17.90;99.90;;;;;;5048472;28;20488;-61
2022/07/17 09:05:57;;;;;;;5.57;1.35;;;18.10;99.90;;;;;;5051975;28;20098;-62
2022/07/17 09:08:24;;;;;;;4.60;1.48;;;18.00;99.90;;;;;;5049670;28;20052;-62
2022/07/17 09:10:52;;;;;;;4.10;0.82;;;18.20;99.90;;;;;;5051412;28;20514;-62
2022/07/17 09:13:22;;;;;;;3.47;0.70;;;17.90;99.90;;;;;;5052016;28;20045;-61
2022/07/17 09:15:50;;;;;;;3.97;1.10;;;18.00;99.90;;;;;;5055147;28;20066;-62
2022/07/17 09:18:17;;;;;;;3.85;1.40;;;18.20;99.90;;;;;;5051015;28;20131;-61
2022/07/17 09:20:54;;;;;;;2.45;0.93;;;18.00;99.90;;;;;;5055774;28;20036;-60
2022/07/17 09:23:21;;;;;;;5.03;1.20;;;18.30;99.90;;;;;;5052757;28;20025;-60
2022/07/17 09:25:49;;;;;;;6.57;1.15;;;18.30;99.90;;;;;;5046627;28;20245;-62
2022/07/17 09:28:16;;;;;;;5.53;0.95;;;18.50;99.90;;;;;;5056030;28;20036;-62
2022/07/17 09:30:45;;;;;;;2.50;0.80;;;18.60;99.90;;;;;;5048730;28;20174;-63
2022/07/17 09:33:15;;;;;;;9.00;1.48;;;18.50;99.90;;;;;;5044977;28;20044;-62
2022/07/17 09:36:07;;;;;;;6.45;1.10;;;18.70;99.90;;;;;;5067123;28;20044;-62
2022/07/17 09:38:40;;;;;;;3.10;0.80;;;18.60;99.90;;;;;;5065811;28;20060;-65
2022/07/17 09:41:15;;;;;;;5.40;0.80;;;19.00;99.90;;;;;;5068374;28;20112;-62
2022/07/17 09:44:07;;;;;;;3.50;0.75;;;19.00;99.90;;;;;;5064453;28;20044;-62
2022/07/17 09:46:36;;;;;;;4.22;0.95;;;19.00;99.90;;;;;;5039382;28;20124;-62
2022/07/17 09:49:09;;;;;;;5.53;1.10;;;19.00;99.90;;;;;;5064997;28;20033;-63
2022/07/17 09:51:38;;;;;;;3.47;0.90;;;19.30;99.90;;;;;;5045987;28;20036;-63
2022/07/17 09:54:06;;;;;;;3.22;1.52;;;19.30;99.90;;;;;;5071221;28;20047;-63
2022/07/17 09:56:36;;;;;;;5.75;1.00;;;19.30;99.90;;;;;;5057876;28;20035;-63
2022/07/17 09:59:11;;;;;;;2.40;0.80;;;19.60;99.90;;;;;;5054229;28;20041;-63
2022/07/17 10:01:39;;;;;;;3.80;0.93;;;19.50;99.90;;;;;;5066172;28;20053;-63
2022/07/17 10:04:06;;;;;;;5.47;1.25;;;19.60;99.90;;;;;;5050844;28;20080;-62
2022/07/17 10:06:33;;;;;;;2.17;0.98;;;19.60;99.90;;;;;;5070376;28;20038;-62
2022/07/17 10:08:59;;;;;;;3.85;0.85;;;19.80;99.90;;;;;;5055123;28;20384;-63
2022/07/17 10:11:27;;;;;;;3.08;1.00;;;19.80;99.90;;;;;;5052994;28;20155;-62
2022/07/17 10:13:55;;;;;;;6.38;1.05;;;21.60;99.90;;;;;;5072512;28;20115;-63
2022/07/17 10:16:25;;;;;;;2.42;0.70;;;19.80;99.90;;;;;;5061628;28;20094;-63
2022/07/17 10:18:54;;;;;;;3.85;0.88;;;19.80;99.90;;;;;;5055864;28;20041;-63
2022/07/17 10:21:21;;;;;;;3.95;0.95;;;19.90;99.90;;;;;;5072412;28;20040;-63
2022/07/17 10:24:06;;;;;;;2.60;0.88;;;19.90;99.90;;;;;;5072164;28;20032;-63
2022/07/17 10:26:32;;;;;;;1.52;0.77;;;20.00;99.90;;;;;;5061718;28;20040;-63
2022/07/17 10:28:58;;;;;;;3.60;1.10;;;20.20;99.90;;;;;;5054275;28;20049;-62
2022/07/17 10:31:32;;;;;;;4.00;0.98;;;20.30;99.90;;;;;;5051607;28;20511;-62
2022/07/17 10:34:05;;;;;;;2.60;1.02;;;20.20;99.90;;;;;;5036477;28;20055;-63
2022/07/17 10:36:37;;;;;;;3.85;1.20;;;20.40;99.90;;;;;;5072487;28;20382;-63
2022/07/17 10:39:23;;;;;;;3.13;1.02;;;20.30;99.90;;;;;;5053122;28;20546;-63
2022/07/17 10:41:59;;;;;;;3.63;0.88;;;20.40;99.90;;;;;;5050511;28;20048;-62
2022/07/17 10:44:34;;;;;;;5.00;1.05;;;20.60;99.90;;;;;;5055687;28;20033;-63
2022/07/17 10:47:00;;;;;;;3.42;0.80;;;20.70;99.90;;;;;;5057624;28;20051;-62
2022/07/17 10:49:26;;;;;;;3.22;1.10;;;20.70;99.90;;;;;;5066499;28;20040;-63
2022/07/17 10:51:52;;;;;;;3.13;1.08;;;20.70;99.90;;;;;;5062736;28;20110;-62
2022/07/17 10:54:19;;;;;;;3.72;0.90;;;20.70;99.90;;;;;;5051363;28;20052;-62
2022/07/17 10:56:46;;;;;;;4.13;0.82;;;21.00;99.90;;;;;;5071856;28;20450;-62
2022/07/17 10:59:12;;;;;;;7.75;1.23;;;21.00;99.90;;;;;;5068301;28;20052;-63
2022/07/17 11:01:38;;;;;;;5.18;0.85;;;21.00;99.90;;;;;;5052040;28;20494;-62
2022/07/17 11:04:06;;;;;;;3.38;0.82;;;21.20;99.90;;;;;;5037420;28;20037;-63
2022/07/17 11:06:39;;;;;;;5.18;0.98;;;21.00;99.90;;;;;;5071838;28;20439;-62
2022/07/17 11:09:10;;;;;;;4.63;1.30;;;21.20;99.90;;;;;;5070745;28;20123;-62
2022/07/17 11:11:44;;;;;;;4.93;2.03;;;21.00;99.90;;;;;;5057187;28;20051;-62
2022/07/17 11:14:26;;;;;;;3.92;1.00;;;21.10;99.90;;;;;;5075290;28;20048;-62
2022/07/17 11:16:55;;;;;;;2.45;1.10;;;21.40;99.90;;;;;;5058677;28;20041;-63
2022/07/17 11:19:25;;;;;;;3.15;1.02;;;21.10;99.90;;;;;;5059773;28;20448;-62
2022/07/17 11:21:52;;;;;;;4.32;1.30;;;21.20;99.90;;;;;;5055304;28;20037;-62
2022/07/17 11:24:18;;;;;;;3.55;1.25;;;21.00;99.90;;;;;;5047061;28;20528;-62
2022/07/17 11:26:44;;;;;;;3.28;1.08;;;21.20;99.90;;;;;;5075033;28;20111;-63
2022/07/17 11:29:10;;;;;;;2.35;1.25;;;21.30;99.90;;;;;;5057997;28;20494;-63
2022/07/17 11:31:36;;;;;;;4.75;0.90;;;21.60;99.90;;;;;;5073661;28;20127;-63
2022/07/17 11:34:11;;;;;;;7.25;1.77;;;21.40;99.90;;;;;;5057199;28;20554;-63
2022/07/17 11:36:39;;;;;;;6.75;1.80;;;21.40;99.90;;;;;;5053538;28;20086;-63
2022/07/17 11:39:23;;;;;;;3.22;1.27;;;21.40;99.90;;;;;;5054255;28;20589;-63
2022/07/17 11:41:52;;;;;;;4.30;1.23;;;21.60;99.90;;;;;;5074932;28;20391;-62
2022/07/17 11:44:20;;;;;;;4.85;1.20;;;21.60;99.90;;;;;;5072050;28;20076;-63
2022/07/17 11:46:49;;;;;;;5.45;1.40;;;21.50;99.90;;;;;;5062636;28;20398;-62
2022/07/17 11:49:33;;;;;;;2.92;1.23;;;21.40;99.90;;;;;;5059706;28;20048;-63
2022/07/17 11:52:10;;;;;;;2.35;1.05;;;21.60;99.90;;;;;;5074310;28;20571;-63
2022/07/17 11:54:54;;;;;;;4.88;1.10;;;21.80;99.90;;;;;;5073266;28;20055;-63
2022/07/17 11:57:21;;;;;;;5.60;1.50;;;21.70;99.90;;;;;;5061119;28;20411;-62
2022/07/17 11:59:47;;;;;;;3.47;1.48;;;21.90;99.90;;;;;;5058379;28;20044;-63
2022/07/17 12:02:18;;;;;;;3.92;1.10;;;21.60;99.90;;;;;;5062675;28;20041;-62
2022/07/17 12:04:52;;;;;;;4.40;1.02;;;22.20;99.90;;;;;;5071262;28;20067;-62
2022/07/17 12:07:18;;;;;;;2.67;1.10;;;21.90;99.90;;;;;;5074088;28;20037;-63
2022/07/17 12:09:44;;;;;;;4.47;1.38;;;21.90;99.90;;;;;;5056172;28;20028;-64
2022/07/17 12:12:23;;;;;;;5.13;1.50;;;21.90;99.90;;;;;;5053386;28;20536;-62
2022/07/17 12:14:57;;;;;;;4.13;1.50;;;22.00;99.90;;;;;;5067971;28;20510;-63
2022/07/17 12:17:23;;;;;;;3.05;1.55;;;22.10;99.90;;;;;;5041074;28;20044;-62
2022/07/17 12:19:50;;;;;;;3.47;1.35;;;21.90;99.90;;;;;;5055516;28;20045;-63
2022/07/17 12:22:16;;;;;;;3.35;1.48;;;22.00;99.90;;;;;;5066873;28;20425;-63
2022/07/17 12:24:44;;;;;;;2.88;1.67;;;22.00;99.90;;;;;;5063331;28;20033;-63
2022/07/17 12:27:14;;;;;;;4.75;1.75;;;22.10;99.90;;;;;;5058590;28;20052;-63
2022/07/17 12:29:41;;;;;;;6.18;1.95;;;22.20;99.90;;;;;;5067235;28;20094;-63
2022/07/17 12:32:14;;;;;;;5.35;2.08;;;22.40;99.90;;;;;;5073192;28;20033;-63
2022/07/17 12:34:46;;;;;;;3.13;1.83;;;22.30;99.90;;;;;;5060997;28;20093;-62
2022/07/17 12:37:16;;;;;;;3.65;1.40;;;22.10;99.90;;;;;;5073389;28;20501;-63
2022/07/17 12:39:46;;;;;;;3.80;1.67;;;22.20;99.90;;;;;;5056795;28;20051;-62
2022/07/17 12:42:13;;;;;;;7.60;1.83;;;22.40;99.90;;;;;;5053736;28;20099;-62
2022/07/17 12:44:38;;;;;;;4.20;1.83;;;22.30;99.90;;;;;;5059303;28;20139;-63
2022/07/17 12:47:04;;;;;;;4.10;1.92;;;22.30;99.90;;;;;;5068241;28;20036;-62
2022/07/17 12:49:30;;;;;;;2.83;1.80;;;22.30;99.90;;;;;;5063465;28;20032;-63
2022/07/17 12:51:56;;;;;;;6.88;2.90;;;22.50;99.90;;;;;;5073385;28;20112;-63
2022/07/17 12:54:22;;;;;;;4.78;2.42;;;22.60;99.90;;;;;;5059366;28;20041;-63